createdAt,value
2022-10-02T00:00:27.291Z,9.95
2022-10-02T00:02:58.755Z,9.89
2022-10-02T00:05:34.113Z,9.82
2022-10-02T00:08:10.272Z,9.87
2022-10-02T00:10:49.023Z,9.78
2022-10-02T00:13:24.839Z,9.72
2022-10-02T00:15:52.784Z,9.72
2022-10-02T00:18:24.519Z,9.89
2022-10-02T00:21:27.630Z,9.76
2022-10-02T00:24:00.546Z,9.82
2022-10-02T00:26:52.452Z,9.82
2022-10-02T00:29:31.161Z,9.87
2022-10-02T00:32:16.504Z,9.82
2022-10-02T00:34:58.075Z,9.77
2022-10-02T00:37:43.035Z,9.82
2022-10-02T00:40:46.967Z,9.84
2022-10-02T00:43:37.715Z,9.75
2022-10-02T00:46:16.109Z,9.78
2022-10-02T00:49:00.511Z,9.83
2022-10-02T00:51:36.807Z,9.83
2022-10-02T00:54:12.113Z,9.97
2022-10-02T00:56:52.432Z,9.88
2022-10-02T00:59:49.933Z,9.77
2022-10-02T01:02:36.473Z,9.67
2022-10-02T01:05:06.947Z,9.80
2022-10-02T01:07:39.847Z,9.75
2022-10-02T01:10:07.235Z,9.91
2022-10-02T01:12:33.558Z,9.82
2022-10-02T01:14:59.886Z,9.84
2022-10-02T01:17:34.540Z,9.74
2022-10-02T01:20:03.750Z,9.77
2022-10-02T01:22:48.886Z,9.61
2022-10-02T01:25:15.630Z,9.65
2022-10-02T01:27:42.299Z,9.62
2022-10-02T01:30:15.706Z,9.77
2022-10-02T01:32:47.910Z,9.83
2022-10-02T01:35:14.547Z,9.74
2022-10-02T01:37:43.583Z,9.75
2022-10-02T01:40:23.559Z,9.77
2022-10-02T01:42:50.845Z,9.88
2022-10-02T01:45:17.402Z,9.72
2022-10-02T01:48:00.175Z,9.89
2022-10-02T01:50:35.523Z,9.96
2022-10-02T01:53:07.840Z,9.94
2022-10-02T01:56:04.547Z,10.05
2022-10-02T01:58:52.444Z,10.03
2022-10-02T02:01:24.826Z,10.01
2022-10-02T02:04:28.821Z,10.02
2022-10-02T02:07:10.073Z,10.01
2022-10-02T02:10:01.189Z,10.00
2022-10-02T02:12:41.982Z,9.96
2022-10-02T02:15:25.369Z,10.27
2022-10-02T02:18:02.359Z,10.40
2022-10-02T02:20:36.387Z,10.40
2022-10-02T02:23:12.345Z,10.51
2022-10-02T02:25:43.125Z,10.53
2022-10-02T02:28:12.865Z,10.55
2022-10-02T02:30:43.052Z,10.60
2022-10-02T02:33:17.721Z,10.61
2022-10-02T02:35:48.546Z,10.55
2022-10-02T02:38:19.932Z,10.61
2022-10-02T02:40:46.942Z,10.68
2022-10-02T02:43:32.541Z,10.82
2022-10-02T02:46:07.076Z,10.75
2022-10-02T02:48:47.659Z,10.74
2022-10-02T02:51:23.187Z,10.77
2022-10-02T02:54:02.617Z,10.78
2022-10-02T02:56:31.861Z,10.84
2022-10-02T02:59:04.586Z,10.69
2022-10-02T03:01:31.014Z,10.71
2022-10-02T03:03:57.368Z,10.70
2022-10-02T03:06:31.727Z,10.72
2022-10-02T03:08:58.672Z,10.92
2022-10-02T03:11:54.181Z,10.75
2022-10-02T03:14:44.851Z,10.73
2022-10-02T03:17:29.460Z,10.73
2022-10-02T03:20:37.442Z,10.64
2022-10-02T03:23:12.122Z,10.61
2022-10-02T03:25:45.822Z,10.51
2022-10-02T03:28:43.379Z,10.60
2022-10-02T03:31:10.576Z,10.73
2022-10-02T03:33:39.216Z,10.82
2022-10-02T03:36:05.906Z,10.75
2022-10-02T03:38:33.675Z,10.79
2022-10-02T03:41:00.028Z,10.76
2022-10-02T03:43:29.642Z,10.81
2022-10-02T03:45:56.473Z,10.90
2022-10-02T03:48:22.982Z,10.83
2022-10-02T03:50:49.631Z,10.92
2022-10-02T03:53:25.229Z,10.91
2022-10-02T03:56:04.986Z,10.89
2022-10-02T03:58:32.540Z,10.92
2022-10-02T04:01:04.590Z,10.89
2022-10-02T04:03:34.437Z,10.88
2022-10-02T04:06:03.338Z,10.89
2022-10-02T04:08:43.454Z,10.93
2022-10-02T04:11:15.598Z,11.06
2022-10-02T04:13:59.387Z,10.96
2022-10-02T04:16:38.314Z,10.88
2022-10-02T04:19:25.194Z,10.67
2022-10-02T04:22:10.085Z,10.73
2022-10-02T04:24:59.036Z,10.64
2022-10-02T04:27:47.981Z,10.53
2022-10-02T04:30:19.869Z,10.48
2022-10-02T04:32:46.986Z,10.37
2022-10-02T04:35:36.350Z,10.34
2022-10-02T04:38:31.969Z,10.26
2022-10-02T04:40:58.220Z,10.15
2022-10-02T04:43:51.665Z,10.17
2022-10-02T04:46:36.952Z,10.06
2022-10-02T04:49:19.343Z,10.02
2022-10-02T04:52:01.568Z,9.99
2022-10-02T04:54:35.775Z,9.90
2022-10-02T04:57:31.984Z,9.89
2022-10-02T05:00:15.871Z,9.83
2022-10-02T05:02:53.791Z,9.75
2022-10-02T05:05:57.705Z,9.66
2022-10-02T05:08:29.923Z,9.75
2022-10-02T05:11:04.445Z,9.83
2022-10-02T05:13:55.323Z,9.92
2022-10-02T05:16:41.306Z,10.07
2022-10-02T05:19:31.389Z,10.14
2022-10-02T05:22:28.621Z,10.16
2022-10-02T05:25:29.225Z,10.24
2022-10-02T05:28:13.534Z,10.26
2022-10-02T05:30:50.874Z,10.23
2022-10-02T05:33:29.612Z,10.17
2022-10-02T05:36:17.875Z,10.24
2022-10-02T05:38:59.128Z,10.19
2022-10-02T05:41:49.665Z,10.36
2022-10-02T05:44:25.887Z,10.40
2022-10-02T05:46:54.920Z,10.36
2022-10-02T05:49:35.831Z,10.40
2022-10-02T05:52:06.574Z,10.50
2022-10-02T05:54:49.142Z,10.52
2022-10-02T05:57:44.035Z,10.54
2022-10-02T06:00:32.702Z,10.69
2022-10-02T06:03:16.518Z,10.85
2022-10-02T06:05:54.837Z,11.00
2022-10-02T06:08:38.218Z,11.15
2022-10-02T06:11:15.031Z,11.36
2022-10-02T06:13:50.101Z,11.39
2022-10-02T06:16:39.835Z,11.44
2022-10-02T06:19:34.941Z,11.40
2022-10-02T06:22:13.450Z,11.46
2022-10-02T06:24:50.758Z,11.66
2022-10-02T06:27:17.079Z,11.93
2022-10-02T06:29:50.662Z,12.09
2022-10-02T06:33:01.752Z,12.16
2022-10-02T06:35:49.318Z,12.19
2022-10-02T06:38:39.467Z,12.24
2022-10-02T06:41:24.426Z,12.25
2022-10-02T06:44:08.585Z,12.34
2022-10-02T06:47:14.969Z,12.32
2022-10-02T06:50:18.730Z,12.23
2022-10-02T06:52:56.860Z,12.30
2022-10-02T06:55:40.506Z,12.30
2022-10-02T06:58:10.065Z,12.44
2022-10-02T07:00:49.795Z,12.50
2022-10-02T07:03:24.087Z,12.52
2022-10-02T07:06:07.008Z,12.68
2022-10-02T07:08:39.154Z,12.74
2022-10-02T07:11:24.431Z,12.74
2022-10-02T07:13:59.796Z,12.79
2022-10-02T07:16:40.881Z,12.67
2022-10-02T07:19:31.107Z,12.68
2022-10-02T07:22:43.333Z,12.62
2022-10-02T07:25:24.440Z,12.50
2022-10-02T07:28:06.261Z,12.67
2022-10-02T07:30:58.381Z,12.91
2022-10-02T07:33:43.553Z,13.00
2022-10-02T07:36:17.461Z,13.04
2022-10-02T07:39:08.337Z,13.30
2022-10-02T07:41:44.925Z,13.66
2022-10-02T07:44:26.495Z,13.76
2022-10-02T07:47:26.979Z,13.74
2022-10-02T07:50:00.682Z,13.66
2022-10-02T07:53:12.077Z,13.62
2022-10-02T07:55:41.363Z,13.64
2022-10-02T07:58:16.775Z,13.77
2022-10-02T08:00:51.160Z,13.88
2022-10-02T08:03:43.343Z,13.77
2022-10-02T08:06:10.321Z,13.97
2022-10-02T08:08:59.351Z,14.23
2022-10-02T08:11:38.890Z,14.42
2022-10-02T08:14:11.324Z,14.34
2022-10-02T08:16:44.527Z,14.35
2022-10-02T08:19:19.016Z,14.44
2022-10-02T08:21:52.740Z,14.58
2022-10-02T08:24:27.898Z,14.77
2022-10-02T08:26:59.288Z,14.96
2022-10-02T08:29:29.957Z,14.97
2022-10-02T08:31:56.580Z,14.85
2022-10-02T08:34:25.039Z,14.77
2022-10-02T08:37:20.287Z,14.64
2022-10-02T08:40:01.625Z,15.00
2022-10-02T08:42:43.247Z,15.06
2022-10-02T08:45:21.467Z,14.71
2022-10-02T08:47:56.931Z,14.43
2022-10-02T08:50:46.362Z,14.66
2022-10-02T08:53:36.776Z,14.85
2022-10-02T08:56:40.625Z,14.92
2022-10-02T08:59:40.821Z,15.09
2022-10-02T09:02:44.765Z,15.27
2022-10-02T09:05:32.802Z,15.09
2022-10-02T09:08:36.946Z,15.35
2022-10-02T09:11:40.602Z,15.65
2022-10-02T09:14:28.520Z,15.87
2022-10-02T09:17:31.866Z,15.99
2022-10-02T09:20:22.377Z,16.31
2022-10-02T09:23:26.473Z,16.34
2022-10-02T09:25:52.824Z,16.26
2022-10-02T09:28:37.798Z,16.21
2022-10-02T09:31:17.163Z,15.91
2022-10-02T09:34:34.710Z,15.48
2022-10-02T09:37:22.863Z,15.29
2022-10-02T09:40:14.927Z,15.00
2022-10-02T09:43:30.161Z,15.12
2022-10-02T09:46:34.852Z,15.14
2022-10-02T09:49:45.893Z,15.09
2022-10-02T09:52:33.093Z,15.20
2022-10-02T09:55:21.007Z,15.60
2022-10-02T09:58:15.042Z,15.51
2022-10-02T10:01:00.863Z,15.23
2022-10-02T10:03:48.952Z,15.35
2022-10-02T10:06:46.608Z,15.17
2022-10-02T10:09:52.326Z,15.37
2022-10-02T10:12:59.142Z,15.40
2022-10-02T10:15:43.517Z,15.49
2022-10-02T10:18:25.218Z,15.56
2022-10-02T10:21:07.438Z,15.74
2022-10-02T10:24:07.388Z,15.31
2022-10-02T10:27:06.260Z,15.29
2022-10-02T10:30:20.438Z,15.22
2022-10-02T10:33:17.366Z,15.38
2022-10-02T10:35:59.098Z,15.11
2022-10-02T10:38:50.304Z,15.06
2022-10-02T10:41:35.551Z,15.05
2022-10-02T10:44:17.235Z,14.90
2022-10-02T10:47:11.095Z,14.96
2022-10-02T10:49:55.726Z,14.85
2022-10-02T10:52:43.365Z,14.42
2022-10-02T10:55:18.670Z,14.51
2022-10-02T10:57:57.029Z,14.64
2022-10-02T11:00:25.385Z,14.99
2022-10-02T11:03:11.980Z,15.31
2022-10-02T11:06:22.619Z,15.75
2022-10-02T11:09:01.679Z,16.10
2022-10-02T11:11:38.886Z,16.61
2022-10-02T11:14:24.169Z,16.83
2022-10-02T11:17:27.634Z,16.94
2022-10-02T11:20:21.927Z,17.30
2022-10-02T11:23:25.527Z,17.59
2022-10-02T11:26:19.126Z,17.33
2022-10-02T11:29:16.443Z,17.14
2022-10-02T11:32:15.251Z,17.11
2022-10-02T11:35:03.352Z,16.80
2022-10-02T11:37:44.573Z,17.04
2022-10-02T11:40:45.159Z,17.13
2022-10-02T11:43:29.976Z,16.98
2022-10-02T11:46:11.386Z,16.99
2022-10-02T11:48:37.730Z,17.16
2022-10-02T11:51:26.465Z,17.32
2022-10-02T11:54:20.042Z,17.46
2022-10-02T11:57:01.723Z,17.73
2022-10-02T11:59:42.335Z,17.69
2022-10-02T12:02:33.200Z,17.52
2022-10-02T12:05:37.263Z,16.98
2022-10-02T12:08:20.127Z,16.71
2022-10-02T12:10:56.063Z,16.63
2022-10-02T12:13:41.222Z,16.64
2022-10-02T12:16:24.314Z,16.52
2022-10-02T12:19:05.726Z,16.98
2022-10-02T12:21:48.146Z,16.81
2022-10-02T12:24:29.382Z,16.75
2022-10-02T12:27:12.998Z,16.44
2022-10-02T12:30:04.683Z,16.50
2022-10-02T12:32:49.886Z,16.61
2022-10-02T12:35:26.144Z,16.51
2022-10-02T12:38:29.953Z,16.63
2022-10-02T12:41:46.282Z,16.97
2022-10-02T12:44:32.799Z,17.04
2022-10-02T12:47:11.270Z,17.17
2022-10-02T12:49:52.816Z,17.55
2022-10-02T12:52:31.332Z,17.82
2022-10-02T12:55:06.695Z,17.93
2022-10-02T12:57:51.544Z,18.09
2022-10-02T13:00:59.695Z,18.51
2022-10-02T13:03:41.241Z,18.42
2022-10-02T13:06:44.996Z,18.27
2022-10-02T13:09:29.851Z,18.47
2022-10-02T13:12:15.465Z,18.56
2022-10-02T13:14:56.862Z,18.36
2022-10-02T13:18:11.537Z,17.48
2022-10-02T13:21:00.042Z,16.50
2022-10-02T13:23:42.114Z,15.74
2022-10-02T13:26:15.772Z,13.59
2022-10-02T13:29:03.735Z,12.81
2022-10-02T13:32:07.173Z,12.63
2022-10-02T13:34:52.095Z,12.65
2022-10-02T13:38:08.069Z,12.93
2022-10-02T13:40:50.018Z,13.21
2022-10-02T13:43:34.045Z,13.12
2022-10-02T13:46:03.198Z,13.27
2022-10-02T13:48:38.396Z,13.52
2022-10-02T13:51:08.949Z,13.81
2022-10-02T13:53:35.250Z,13.94
2022-10-02T13:56:32.772Z,14.08
2022-10-02T13:59:11.370Z,14.16
2022-10-02T14:02:01.884Z,14.29
2022-10-02T14:04:50.348Z,14.44
2022-10-02T14:07:41.226Z,14.41
2022-10-02T14:10:26.149Z,14.60
2022-10-02T14:13:07.548Z,14.72
2022-10-02T14:16:03.891Z,14.77
2022-10-02T14:18:45.480Z,14.95
2022-10-02T14:21:42.487Z,14.78
2022-10-02T14:24:29.542Z,15.01
2022-10-02T14:27:09.114Z,15.18
2022-10-02T14:30:12.593Z,15.24
2022-10-02T14:33:20.924Z,15.40
2022-10-02T14:35:59.398Z,15.18
2022-10-02T14:38:28.679Z,15.20
2022-10-02T14:40:56.952Z,15.47
2022-10-02T14:43:46.168Z,15.43
2022-10-02T14:46:44.594Z,15.55
2022-10-02T14:49:36.458Z,15.43
2022-10-02T14:52:08.762Z,15.53
2022-10-02T14:54:53.688Z,15.44
2022-10-02T14:57:44.162Z,15.36
2022-10-02T15:00:15.985Z,15.07
2022-10-02T15:03:17.600Z,15.31
2022-10-02T15:06:02.542Z,15.05
2022-10-02T15:08:35.970Z,14.89
2022-10-02T15:11:04.901Z,14.75
2022-10-02T15:13:37.299Z,14.77
2022-10-02T15:16:17.516Z,14.82
2022-10-02T15:18:59.460Z,15.01
2022-10-02T15:21:40.803Z,15.05
2022-10-02T15:24:45.358Z,14.97
2022-10-02T15:27:30.867Z,15.07
2022-10-02T15:30:03.940Z,15.06
2022-10-02T15:32:50.548Z,15.07
2022-10-02T15:35:28.381Z,15.12
2022-10-02T15:38:00.817Z,14.91
2022-10-02T15:40:46.769Z,14.83
2022-10-02T15:43:16.368Z,14.69
2022-10-02T15:46:18.677Z,14.60
2022-10-02T15:48:55.697Z,14.69
2022-10-02T15:51:46.501Z,14.50
2022-10-02T15:54:34.128Z,14.48
2022-10-02T15:57:32.910Z,14.44
2022-10-02T16:00:11.039Z,14.48
2022-10-02T16:02:50.732Z,14.51
2022-10-02T16:05:19.874Z,14.25
2022-10-02T16:08:15.252Z,14.17
2022-10-02T16:11:23.436Z,14.20
2022-10-02T16:13:53.239Z,14.27
2022-10-02T16:16:31.035Z,14.19
2022-10-02T16:19:15.281Z,14.41
2022-10-02T16:22:00.467Z,14.46
2022-10-02T16:24:26.658Z,14.36
2022-10-02T16:27:24.896Z,14.23
2022-10-02T16:30:12.388Z,14.47
2022-10-02T16:32:53.826Z,14.29
2022-10-02T16:35:26.096Z,14.31
2022-10-02T16:38:03.446Z,14.16
2022-10-02T16:41:06.811Z,13.90
2022-10-02T16:43:51.743Z,13.78
2022-10-02T16:46:42.362Z,13.68
2022-10-02T16:49:28.414Z,13.70
2022-10-02T16:52:24.053Z,13.66
2022-10-02T16:54:50.255Z,13.61
2022-10-02T16:57:35.135Z,13.41
2022-10-02T17:00:22.325Z,13.39
2022-10-02T17:02:54.567Z,13.07
2022-10-02T17:05:57.509Z,13.10
2022-10-02T17:08:34.603Z,13.24
2022-10-02T17:11:18.935Z,13.18
2022-10-02T17:14:02.021Z,12.91
2022-10-02T17:16:38.378Z,12.80
2022-10-02T17:19:41.615Z,12.70
2022-10-02T17:22:27.419Z,12.64
2022-10-02T17:25:19.530Z,12.44
2022-10-02T17:28:20.841Z,12.38
2022-10-02T17:31:08.351Z,12.36
2022-10-02T17:33:46.407Z,12.31
2022-10-02T17:36:29.965Z,12.25
2022-10-02T17:39:07.363Z,12.16
2022-10-02T17:42:05.296Z,12.12
2022-10-02T17:45:02.754Z,12.00
2022-10-02T17:47:41.262Z,11.93
2022-10-02T17:50:34.011Z,11.75
2022-10-02T17:53:12.563Z,11.66
2022-10-02T17:56:13.132Z,11.53
2022-10-02T17:58:57.738Z,11.60
2022-10-02T18:01:37.101Z,11.66
2022-10-02T18:04:11.543Z,11.58
2022-10-02T18:07:11.875Z,11.63
2022-10-02T18:10:22.545Z,11.46
2022-10-02T18:12:53.043Z,11.55
2022-10-02T18:15:50.552Z,11.55
2022-10-02T18:18:28.866Z,11.44
2022-10-02T18:21:21.536Z,11.34
2022-10-02T18:23:56.964Z,11.35
2022-10-02T18:26:54.096Z,11.24
2022-10-02T18:29:38.699Z,11.14
2022-10-02T18:32:27.004Z,11.13
2022-10-02T18:35:18.290Z,11.06
2022-10-02T18:37:53.527Z,11.02
2022-10-02T18:40:31.415Z,10.92
2022-10-02T18:43:11.904Z,10.86
2022-10-02T18:45:57.033Z,10.91
2022-10-02T18:48:50.161Z,10.88
2022-10-02T18:51:52.852Z,10.90
2022-10-02T18:54:37.222Z,10.92
2022-10-02T18:57:28.728Z,10.93
2022-10-02T19:00:18.011Z,11.07
2022-10-02T19:03:18.603Z,11.23
2022-10-02T19:06:01.301Z,11.34
2022-10-02T19:08:55.558Z,11.38
2022-10-02T19:11:28.515Z,11.53
2022-10-02T19:13:55.405Z,11.57
2022-10-02T19:16:25.421Z,11.66
2022-10-02T19:19:20.279Z,11.71
2022-10-02T19:21:47.841Z,11.60
2022-10-02T19:24:19.417Z,11.62
2022-10-02T19:26:49.291Z,11.56
2022-10-02T19:29:40.387Z,11.43
2022-10-02T19:32:20.799Z,11.44
2022-10-02T19:34:54.947Z,11.43
2022-10-02T19:37:21.673Z,11.37
2022-10-02T19:39:54.872Z,11.30
2022-10-02T19:42:27.948Z,11.26
2022-10-02T19:45:02.509Z,11.22
2022-10-02T19:47:40.399Z,11.12
2022-10-02T19:50:18.956Z,11.02
2022-10-02T19:52:54.730Z,10.99
2022-10-02T19:55:23.863Z,10.92
2022-10-02T19:57:54.288Z,10.93
2022-10-02T20:00:20.679Z,10.88
2022-10-02T20:02:50.515Z,10.84
2022-10-02T20:05:29.550Z,10.79
2022-10-02T20:08:04.215Z,10.69
2022-10-02T20:10:37.778Z,10.67
2022-10-02T20:13:07.124Z,10.63
2022-10-02T20:15:42.471Z,10.56
2022-10-02T20:18:10.935Z,10.50
2022-10-02T20:20:39.899Z,10.39
2022-10-02T20:23:15.782Z,10.28
2022-10-02T20:25:50.295Z,10.24
2022-10-02T20:28:40.880Z,10.13
2022-10-02T20:31:32.191Z,10.05
2022-10-02T20:34:01.261Z,9.98
2022-10-02T20:36:34.946Z,10.00
2022-10-02T20:39:07.159Z,9.91
2022-10-02T20:42:21.135Z,9.80
2022-10-02T20:44:47.430Z,9.93
2022-10-02T20:47:33.184Z,9.89
2022-10-02T20:50:42.229Z,9.78
2022-10-02T20:53:26.488Z,9.75
2022-10-02T20:56:30.535Z,9.73
2022-10-02T20:59:28.731Z,9.70
2022-10-02T21:02:02.349Z,9.69
2022-10-02T21:04:38.809Z,9.64
2022-10-02T21:07:20.448Z,9.63
2022-10-02T21:10:01.951Z,9.69
2022-10-02T21:12:37.689Z,9.69
2022-10-02T21:15:31.871Z,9.59
2022-10-02T21:18:08.655Z,9.51
2022-10-02T21:21:05.852Z,9.45
2022-10-02T21:23:57.036Z,9.44
2022-10-02T21:27:00.941Z,9.35
2022-10-02T21:29:51.423Z,9.30
2022-10-02T21:32:48.618Z,9.33
2022-10-02T21:35:36.700Z,9.27
2022-10-02T21:38:21.865Z,9.54
2022-10-02T21:41:08.519Z,9.61
2022-10-02T21:44:12.357Z,9.70
2022-10-02T21:47:02.895Z,9.72
2022-10-02T21:49:44.096Z,9.74
2022-10-02T21:52:28.630Z,9.59
2022-10-02T21:55:19.872Z,9.57
2022-10-02T21:58:02.140Z,9.56
2022-10-02T22:00:29.763Z,9.63
2022-10-02T22:03:33.643Z,9.72
2022-10-02T22:06:14.964Z,9.65
2022-10-02T22:09:18.435Z,9.64
2022-10-02T22:12:20.263Z,9.59
2022-10-02T22:15:02.046Z,9.69
2022-10-02T22:17:58.524Z,9.60
2022-10-02T22:20:49.698Z,9.61
2022-10-02T22:23:54.435Z,9.57
2022-10-02T22:26:42.296Z,9.48
2022-10-02T22:29:19.115Z,9.54
2022-10-02T22:32:00.217Z,9.54
2022-10-02T22:34:45.436Z,9.46
2022-10-02T22:37:17.435Z,9.41
2022-10-02T22:39:59.652Z,9.48
2022-10-02T22:42:37.443Z,9.52
2022-10-02T22:45:14.334Z,9.54
2022-10-02T22:47:52.373Z,9.56
2022-10-02T22:50:31.380Z,9.55
2022-10-02T22:53:20.602Z,9.51
2022-10-02T22:55:53.489Z,9.46
2022-10-02T22:58:44.706Z,9.34
2022-10-02T23:01:21.671Z,9.27
2022-10-02T23:03:56.363Z,9.38
2022-10-02T23:06:33.616Z,9.33
2022-10-02T23:09:22.731Z,9.31
2022-10-02T23:12:36.850Z,9.31
2022-10-02T23:15:29.626Z,9.29
2022-10-02T23:18:02.247Z,9.45
2022-10-02T23:21:18.201Z,9.42
2022-10-02T23:24:19.401Z,9.27
2022-10-02T23:26:48.424Z,9.27
2022-10-02T23:29:17.752Z,9.35
2022-10-02T23:32:13.614Z,9.33
2022-10-02T23:34:45.852Z,9.34
2022-10-02T23:37:38.405Z,9.44
2022-10-02T23:40:21.075Z,9.40
2022-10-02T23:42:56.224Z,9.35
2022-10-02T23:45:35.596Z,9.33
2022-10-02T23:48:12.873Z,9.28
2022-10-02T23:51:07.058Z,9.23
2022-10-02T23:53:54.607Z,9.37
2022-10-02T23:56:55.058Z,9.32
2022-10-02T23:59:58.218Z,9.36
